Time;durP1;ratioP1;P1;durP2;ratioP2;P2;SDS_P1;SDS_P2;PMS_P1;PMS_P2;Temp;Humidity;BMP_temperature;BMP_pressure;BME280_temperature;BME280_humidity;BME280_pressure;Samples;Min_cycle;Max_cycle;Signal;HPM_P1;HPM_P2
2022/11/02 00:00:12;;;;;;;9.63;2.00;;;;;;;;;;5110878;28;20058;-77
2022/11/02 00:02:38;;;;;;;12.45;2.60;;;;;;;;;;5110125;28;20043;-77
2022/11/02 00:05:04;;;;;;;9.75;2.13;;;;;;;;;;5110600;28;20529;-76
2022/11/02 00:07:31;;;;;;;9.68;2.13;;;;;;;;;;5112318;28;20042;-76
2022/11/02 00:09:57;;;;;;;11.20;2.15;;;;;;;;;;5112008;28;20042;-76
2022/11/02 00:12:23;;;;;;;13.32;2.25;;;;;;;;;;5109958;28;20047;-76
2022/11/02 00:14:49;;;;;;;16.95;2.05;;;;;;;;;;5111754;28;20038;-76
2022/11/02 00:17:15;;;;;;;10.45;1.80;;;;;;;;;;5112052;28;20039;-76
2022/11/02 00:19:41;;;;;;;10.35;1.67;;;;;;;;;;5110396;28;20035;-76
2022/11/02 00:22:07;;;;;;;13.95;2.60;;;;;;;;;;5109572;28;20054;-76
2022/11/02 00:24:33;;;;;;;10.15;1.90;;;;;;;;;;5111660;28;20044;-76
2022/11/02 00:26:59;;;;;;;12.32;2.05;;;;;;;;;;5110830;28;20050;-76
2022/11/02 00:29:25;;;;;;;9.38;2.08;;;;;;;;;;5111134;28;20122;-76
2022/11/02 00:31:51;;;;;;;10.40;1.60;;;;;;;;;;5110903;28;20043;-75
2022/11/02 00:34:17;;;;;;;10.73;1.90;;;;;;;;;;5110435;28;20452;-76
2022/11/02 00:36:44;;;;;;;11.13;1.90;;;;;;;;;;5106352;28;20398;-76
2022/11/02 00:39:10;;;;;;;8.57;1.60;;;;;;;;;;5109654;28;20075;-76
2022/11/02 00:41:36;;;;;;;15.48;2.20;;;;;;;;;;5092646;28;20048;-76
2022/11/02 00:44:02;;;;;;;13.27;1.83;;;;;;;;;;5111544;28;20035;-76
2022/11/02 00:46:28;;;;;;;11.15;1.75;;;;;;;;;;5111779;28;20485;-75
2022/11/02 00:48:54;;;;;;;14.57;1.90;;;;;;;;;;5094624;28;20497;-75
2022/11/02 00:51:20;;;;;;;9.00;1.75;;;;;;;;;;5109979;28;20401;-76
2022/11/02 00:53:46;;;;;;;11.82;2.38;;;;;;;;;;5112220;28;20558;-75
2022/11/02 00:56:12;;;;;;;14.88;2.25;;;;;;;;;;5110029;28;20435;-76
2022/11/02 00:58:38;;;;;;;17.08;2.30;;;;;;;;;;5112870;28;20122;-76
2022/11/02 01:01:05;;;;;;;13.45;2.20;;;;;;;;;;5111896;28;20523;-76
2022/11/02 01:03:31;;;;;;;14.93;2.30;;;;;;;;;;5113080;28;20043;-75
2022/11/02 01:05:57;;;;;;;17.08;2.92;;;;;;;;;;5112337;28;20035;-75
2022/11/02 01:08:23;;;;;;;16.10;2.72;;;;;;;;;;5112970;28;20047;-75
2022/11/02 01:10:49;;;;;;;17.45;2.88;;;;;;;;;;5108860;28;20040;-75
2022/11/02 01:13:15;;;;;;;12.75;2.53;;;;;;;;;;5103295;28;20080;-75
2022/11/02 01:15:42;;;;;;;15.38;2.83;;;;;;;;;;5107189;28;20031;-75
2022/11/02 01:18:08;;;;;;;14.05;3.17;;;;;;;;;;5103670;28;20553;-75
2022/11/02 01:20:34;;;;;;;14.35;2.88;;;;;;;;;;5104346;28;20038;-75
2022/11/02 01:23:00;;;;;;;12.05;2.58;;;;;;;;;;5105401;28;20047;-75
2022/11/02 01:25:26;;;;;;;15.50;2.83;;;;;;;;;;5104634;28;20070;-75
2022/11/02 01:27:52;;;;;;;16.02;3.05;;;;;;;;;;5086241;28;20047;-75
2022/11/02 01:30:18;;;;;;;19.27;2.90;;;;;;;;;;5090815;28;20051;-75
2022/11/02 01:32:44;;;;;;;18.77;2.88;;;;;;;;;;5109435;28;20063;-75
2022/11/02 01:35:10;;;;;;;15.35;2.42;;;;;;;;;;5111919;28;20043;-75
2022/11/02 01:37:36;;;;;;;15.55;2.65;;;;;;;;;;5109732;28;20081;-75
2022/11/02 01:40:02;;;;;;;18.00;2.53;;;;;;;;;;5108685;28;20040;-75
2022/11/02 01:42:28;;;;;;;13.45;2.67;;;;;;;;;;5105642;28;20056;-75
2022/11/02 01:44:54;;;;;;;16.70;2.90;;;;;;;;;;5107185;28;20044;-76
2022/11/02 01:47:29;;;;;;;16.67;2.50;;;;;;;;;;5109996;28;20084;-75
2022/11/02 01:49:58;;;;;;;14.85;2.30;;;;;;;;;;5115306;28;20058;-75
2022/11/02 01:52:27;;;;;;;12.95;2.28;;;;;;;;;;5111153;27;20043;-76
2022/11/02 01:54:55;;;;;;;19.15;2.72;;;;;;;;;;5114508;28;20039;-75
2022/11/02 01:57:22;;;;;;;19.65;3.03;;;;;;;;;;5094567;28;20044;-75
2022/11/02 01:59:51;;;;;;;14.48;2.58;;;;;;;;;;5112239;28;20409;-75
2022/11/02 02:02:19;;;;;;;14.60;2.35;;;;;;;;;;5113096;28;20039;-75
2022/11/02 02:04:47;;;;;;;14.65;2.38;;;;;;;;;;5114304;28;20035;-75
2022/11/02 02:07:14;;;;;;;13.63;2.38;;;;;;;;;;5113878;28;20072;-75
2022/11/02 02:09:40;;;;;;;12.95;2.20;;;;;;;;;;5113311;28;20043;-76
2022/11/02 02:12:07;;;;;;;11.82;2.30;;;;;;;;;;5096231;28;20055;-75
2022/11/02 02:14:33;;;;;;;14.35;2.30;;;;;;;;;;5113231;28;20046;-76
2022/11/02 02:17:08;;;;;;;12.55;2.47;;;;;;;;;;5112907;28;20397;-76
2022/11/02 02:19:47;;;;;;;14.80;2.80;;;;;;;;;;5112695;28;20048;-76
2022/11/02 02:22:32;;;;;;;13.20;2.20;;;;;;;;;;5109498;28;20122;-76
2022/11/02 02:25:07;;;;;;;13.57;2.05;;;;;;;;;;5109683;28;20101;-76
2022/11/02 02:28:00;;;;;;;15.38;2.72;;;;;;;;;;5095890;28;20047;-76
2022/11/02 02:30:27;;;;;;;12.48;1.92;;;;;;;;;;5094292;28;20508;-75
2022/11/02 02:32:58;;;;;;;16.15;2.85;;;;;;;;;;5113377;28;20043;-75
2022/11/02 02:35:37;;;;;;;20.10;3.08;;;;;;;;;;5114684;28;20035;-75
2022/11/02 02:38:05;;;;;;;15.10;2.25;;;;;;;;;;5111036;28;20058;-75
2022/11/02 02:41:06;;;;;;;15.23;2.42;;;;;;;;;;5113220;28;20047;-76
2022/11/02 02:43:36;;;;;;;13.88;2.55;;;;;;;;;;5015179;28;20049;-76
2022/11/02 02:46:08;;;;;;;12.50;2.28;;;;;;;;;;5029946;28;20057;-76
2022/11/02 02:48:35;;;;;;;9.93;2.00;;;;;;;;;;5028655;28;20056;-76
2022/11/02 02:51:04;;;;;;;11.30;2.13;;;;;;;;;;5031128;28;20503;-76
2022/11/02 02:53:41;;;;;;;10.30;2.15;;;;;;;;;;5029332;28;20041;-76
2022/11/02 02:56:09;;;;;;;9.68;1.90;;;;;;;;;;5029541;28;20099;-76
2022/11/02 02:58:39;;;;;;;12.65;2.00;;;;;;;;;;5030223;28;20053;-76
2022/11/02 03:01:05;;;;;;;10.45;2.05;;;;;;;;;;4996808;28;20412;-75
2022/11/02 03:03:33;;;;;;;11.43;2.08;;;;;;;;;;4993806;28;20492;-76
2022/11/02 03:06:06;;;;;;;8.80;1.70;;;;;;;;;;5011303;28;20567;-76
2022/11/02 03:08:36;;;;;;;8.50;1.80;;;;;;;;;;5009562;28;20076;-76
2022/11/02 03:11:08;;;;;;;8.48;1.75;;;;;;;;;;5010129;28;20567;-76
2022/11/02 03:13:52;;;;;;;8.25;1.60;;;;;;;;;;5010314;28;20494;-76
2022/11/02 03:16:37;;;;;;;10.90;1.95;;;;;;;;;;5010125;28;20058;-76
2022/11/02 03:19:22;;;;;;;7.90;1.58;;;;;;;;;;5070121;28;20028;-76
2022/11/02 03:21:53;;;;;;;12.30;1.98;;;;;;;;;;5067493;28;20037;-75
2022/11/02 03:24:22;;;;;;;11.38;2.05;;;;;;;;;;5070437;28;20040;-76
2022/11/02 03:27:06;;;;;;;10.90;2.03;;;;;;;;;;5071716;28;20052;-76
2022/11/02 03:29:44;;;;;;;10.70;2.08;;;;;;;;;;5072381;28;20051;-76
2022/11/02 03:32:13;;;;;;;8.35;1.90;;;;;;;;;;5071875;28;20102;-76
2022/11/02 03:34:44;;;;;;;11.18;1.52;;;;;;;;;;5069176;28;20132;-76
2022/11/02 03:37:10;;;;;;;;;;;;;;;;;;5073755;28;20098;-76
2022/11/02 03:39:38;;;;;;;7.90;1.10;;;;;;;;;;5071756;28;19924;-76
2022/11/02 03:42:05;;;;;;;8.25;1.10;;;;;;;;;;5069499;28;20050;-76
2022/11/02 03:44:34;;;;;;;7.88;1.38;;;;;;;;;;5068362;28;20128;-76
2022/11/02 03:47:01;;;;;;;6.05;1.05;;;;;;;;;;5069648;28;20494;-76
2022/11/02 03:49:28;;;;;;;9.32;1.20;;;;;;;;;;5071665;28;20032;-76
2022/11/02 03:51:55;;;;;;;6.78;1.20;;;;;;;;;;5061864;28;20126;-76
2022/11/02 03:54:21;;;;;;;6.88;1.55;;;;;;;;;;5063824;28;20048;-76
2022/11/02 03:56:52;;;;;;;6.43;1.13;;;;;;;;;;5072728;28;20083;-76
2022/11/02 03:59:18;;;;;;;7.32;1.30;;;;;;;;;;5073274;28;20127;-76
2022/11/02 04:01:45;;;;;;;8.50;1.17;;;;;;;;;;5111711;28;20485;-76
2022/11/02 04:04:12;;;;;;;9.13;1.63;;;;;;;;;;5112307;28;20045;-76
2022/11/02 04:06:39;;;;;;;7.75;1.27;;;;;;;;;;5111376;28;20092;-76
2022/11/02 04:09:05;;;;;;;8.65;1.30;;;;;;;;;;5113147;28;20514;-76
2022/11/02 04:19:45;;;;;;;9.18;1.52;;;;;;;;;;5105263;28;20044;-76
2022/11/02 04:25:15;;;;;;;6.88;1.40;;;;;;;;;;5108366;28;20040;-77
2022/11/02 04:27:45;;;;;;;10.38;1.60;;;;;;;;;;5110424;28;20036;-74
2022/11/02 04:30:11;;;;;;;8.60;1.67;;;;;;;;;;5110298;28;20047;-77
2022/11/02 04:35:23;;;;;;;7.85;1.48;;;;;;;;;;5093430;28;20052;-76
2022/11/02 04:40:33;;;;;;;8.65;1.42;;;;;;;;;;5110395;28;20043;-75
2022/11/02 04:42:59;;;;;;;7.43;1.65;;;;;;;;;;5108992;28;20050;-76
2022/11/02 04:45:25;;;;;;;10.50;1.60;;;;;;;;;;5109947;28;20455;-76
2022/11/02 04:47:52;;;;;;;12.25;2.35;;;;;;;;;;5089561;28;20078;-76
2022/11/02 04:50:18;;;;;;;8.95;1.50;;;;;;;;;;5111376;28;20394;-76
2022/11/02 04:52:44;;;;;;;11.88;1.85;;;;;;;;;;5108516;28;20035;-76
2022/11/02 04:55:10;;;;;;;8.50;1.55;;;;;;;;;;5109616;28;20039;-76
2022/11/02 04:57:36;;;;;;;12.25;2.33;;;;;;;;;;5110037;28;20493;-76
2022/11/02 05:00:02;;;;;;;13.68;1.80;;;;;;;;;;5094047;28;20051;-76
2022/11/02 05:02:28;;;;;;;10.80;2.20;;;;;;;;;;5093731;28;20047;-76
2022/11/02 05:04:54;;;;;;;8.65;1.58;;;;;;;;;;5110136;28;20470;-76
2022/11/02 05:07:20;;;;;;;10.65;2.33;;;;;;;;;;5090451;28;20043;-76
2022/11/02 05:09:46;;;;;;;9.75;2.03;;;;;;;;;;5094062;28;20043;-76
2022/11/02 05:12:12;;;;;;;12.25;2.05;;;;;;;;;;5111872;28;20052;-76
2022/11/02 05:14:39;;;;;;;8.90;1.58;;;;;;;;;;5108710;28;20051;-75
2022/11/02 05:17:05;;;;;;;12.35;1.70;;;;;;;;;;5091842;28;20485;-76
2022/11/02 05:19:31;;;;;;;16.35;2.50;;;;;;;;;;5106179;28;20114;-76
2022/11/02 05:21:57;;;;;;;12.40;2.10;;;;;;;;;;5114296;28;20100;-77
2022/11/02 05:24:23;;;;;;;10.88;2.13;;;;;;;;;;5114610;28;20044;-76
2022/11/02 05:26:49;;;;;;;12.98;2.22;;;;;;;;;;5114767;28;20055;-76
2022/11/02 05:29:15;;;;;;;11.95;2.20;;;;;;;;;;5112843;28;20048;-76
2022/11/02 05:31:41;;;;;;;12.32;2.30;;;;;;;;;;5115029;28;20036;-77
2022/11/02 05:34:07;;;;;;;13.35;2.00;;;;;;;;;;5114956;28;20051;-76
2022/11/02 05:36:33;;;;;;;10.02;2.42;;;;;;;;;;5113756;28;20082;-76
2022/11/02 05:38:59;;;;;;;12.32;2.33;;;;;;;;;;5112528;28;20047;-76
2022/11/02 05:41:25;;;;;;;13.00;1.70;;;;;;;;;;5114224;28;20035;-76
2022/11/02 05:43:51;;;;;;;12.32;2.55;;;;;;;;;;5114298;28;20426;-76
2022/11/02 05:46:17;;;;;;;17.50;2.53;;;;;;;;;;5110832;28;20058;-76
2022/11/02 05:48:43;;;;;;;11.65;2.22;;;;;;;;;;5114114;28;20459;-77
2022/11/02 05:51:09;;;;;;;11.10;2.10;;;;;;;;;;5114482;28;20042;-76
2022/11/02 05:53:37;;;;;;;14.48;2.35;;;;;;;;;;5092265;28;20486;-77
2022/11/02 05:56:04;;;;;;;11.18;2.30;;;;;;;;;;5114901;28;20048;-77
2022/11/02 05:58:30;;;;;;;12.07;1.83;;;;;;;;;;5114520;28;20042;-76
2022/11/02 06:01:00;;;;;;;11.57;2.20;;;;;;;;;;5115353;28;20379;-76
2022/11/02 06:03:26;;;;;;;14.45;2.40;;;;;;;;;;5085422;28;20048;-76
2022/11/02 06:06:11;;;;;;;12.70;2.20;;;;;;;;;;5113873;28;20046;-76
2022/11/02 06:08:37;;;;;;;12.55;2.65;;;;;;;;;;5115008;28;20050;-77
2022/11/02 06:11:04;;;;;;;14.15;3.55;;;;;;;;;;5113526;28;20055;-77
2022/11/02 06:13:31;;;;;;;14.63;2.70;;;;;;;;;;5112201;28;20524;-77
2022/11/02 06:16:00;;;;;;;15.75;2.50;;;;;;;;;;5111540;28;20047;-76
2022/11/02 06:18:26;;;;;;;14.07;2.22;;;;;;;;;;5112167;28;20035;-76
2022/11/02 06:20:52;;;;;;;14.68;2.47;;;;;;;;;;5095145;28;20489;-76
2022/11/02 06:23:18;;;;;;;11.10;2.30;;;;;;;;;;5113470;28;20042;-76
2022/11/02 06:25:54;;;;;;;15.30;2.75;;;;;;;;;;5112133;28;20105;-77
2022/11/02 06:28:21;;;;;;;16.17;2.95;;;;;;;;;;5113353;28;20044;-76
2022/11/02 06:30:48;;;;;;;14.80;2.72;;;;;;;;;;5113272;28;20108;-76
2022/11/02 06:33:14;;;;;;;17.77;3.03;;;;;;;;;;5104290;28;20048;-76
2022/11/02 06:35:43;;;;;;;13.45;2.47;;;;;;;;;;5109626;28;20135;-76
2022/11/02 06:38:09;;;;;;;14.50;2.60;;;;;;;;;;5110982;28;20036;-76
2022/11/02 06:40:35;;;;;;;16.42;2.92;;;;;;;;;;5110596;28;20104;-77
2022/11/02 06:43:01;;;;;;;18.08;3.22;;;;;;;;;;5094166;28;20077;-76
2022/11/02 06:45:27;;;;;;;16.42;2.80;;;;;;;;;;5113598;28;20075;-76
2022/11/02 06:47:53;;;;;;;14.05;2.70;;;;;;;;;;5111516;28;20075;-77
2022/11/02 06:50:20;;;;;;;11.77;2.70;;;;;;;;;;5112712;28;20540;-76
2022/11/02 06:52:46;;;;;;;17.30;2.45;;;;;;;;;;5101830;28;20051;-76
2022/11/02 06:55:13;;;;;;;11.95;2.47;;;;;;;;;;5110695;28;20501;-76
2022/11/02 06:57:40;;;;;;;13.82;2.85;;;;;;;;;;5113375;28;20113;-76
2022/11/02 07:00:07;;;;;;;14.52;2.50;;;;;;;;;;5062033;28;20059;-76
2022/11/02 07:02:33;;;;;;;13.90;2.72;;;;;;;;;;5098662;28;20532;-76
2022/11/02 07:05:01;;;;;;;16.35;2.95;;;;;;;;;;5112852;28;20047;-76
2022/11/02 07:07:27;;;;;;;15.00;2.50;;;;;;;;;;5113053;28;20103;-76
2022/11/02 07:09:53;;;;;;;16.83;3.13;;;;;;;;;;5110279;28;20043;-76
2022/11/02 07:12:19;;;;;;;12.80;2.85;;;;;;;;;;5109014;28;20036;-76
2022/11/02 07:14:45;;;;;;;15.48;2.60;;;;;;;;;;5111976;28;20035;-76
2022/11/02 07:17:11;;;;;;;17.98;3.08;;;;;;;;;;5091699;28;20643;-76
2022/11/02 07:19:37;;;;;;;16.73;2.97;;;;;;;;;;5110572;28;20127;-76
2022/11/02 07:22:03;;;;;;;12.93;2.47;;;;;;;;;;5113232;28;20128;-76
2022/11/02 07:24:29;;;;;;;11.90;2.70;;;;;;;;;;5113276;28;20046;-77
2022/11/02 07:26:55;;;;;;;17.00;3.47;;;;;;;;;;5113125;28;20047;-75
2022/11/02 07:29:21;;;;;;;17.05;2.92;;;;;;;;;;5094472;28;20047;-76
2022/11/02 07:31:47;;;;;;;18.90;3.20;;;;;;;;;;5112904;28;20043;-76
2022/11/02 07:34:14;;;;;;;15.05;2.50;;;;;;;;;;5113762;28;20039;-76
2022/11/02 07:36:40;;;;;;;15.43;2.67;;;;;;;;;;5113243;28;20626;-76
2022/11/02 07:39:06;;;;;;;13.80;2.67;;;;;;;;;;5113666;28;20051;-76
2022/11/02 07:41:32;;;;;;;14.35;2.85;;;;;;;;;;5111837;28;20393;-76
2022/11/02 07:43:58;;;;;;;19.05;3.05;;;;;;;;;;5111968;28;20046;-76
2022/11/02 07:46:25;;;;;;;13.75;2.40;;;;;;;;;;5113669;28;20040;-76
2022/11/02 07:48:51;;;;;;;18.85;2.92;;;;;;;;;;5112423;28;20050;-75
2022/11/02 07:51:17;;;;;;;12.02;2.80;;;;;;;;;;5112315;28;20052;-75
2022/11/02 07:53:43;;;;;;;18.95;3.20;;;;;;;;;;5091806;28;20039;-76
2022/11/02 07:56:10;;;;;;;20.00;3.38;;;;;;;;;;5112781;28;20055;-76
2022/11/02 07:58:36;;;;;;;14.23;2.75;;;;;;;;;;5113217;28;20047;-76
2022/11/02 08:01:03;;;;;;;15.27;2.50;;;;;;;;;;5112144;28;20043;-78
2022/11/02 08:03:29;;;;;;;15.90;2.80;;;;;;;;;;5106083;28;20042;-75
2022/11/02 08:05:55;;;;;;;15.82;2.80;;;;;;;;;;5107708;28;20527;-76
2022/11/02 08:08:22;;;;;;;14.68;2.60;;;;;;;;;;5092732;28;20047;-76
2022/11/02 08:10:49;;;;;;;12.57;2.50;;;;;;;;;;5112983;28;20135;-77
2022/11/02 08:13:16;;;;;;;15.27;2.30;;;;;;;;;;5111161;28;20040;-76
2022/11/02 08:15:42;;;;;;;14.00;2.30;;;;;;;;;;5109302;28;20075;-76
2022/11/02 08:18:16;;;;;;;16.77;2.40;;;;;;;;;;5100967;28;20046;-76
2022/11/02 08:20:42;;;;;;;18.48;2.85;;;;;;;;;;5112874;28;20079;-75
2022/11/02 08:23:10;;;;;;;16.00;2.47;;;;;;;;;;5111566;28;20047;-76
2022/11/02 08:25:36;;;;;;;14.95;2.85;;;;;;;;;;5112204;28;20052;-75
2022/11/02 08:28:03;;;;;;;16.42;2.50;;;;;;;;;;5112197;28;20442;-75
2022/11/02 08:30:30;;;;;;;19.02;3.15;;;;;;;;;;5111901;28;20040;-75
2022/11/02 08:33:01;;;;;;;16.52;3.97;;;;;;;;;;5112093;28;20062;-76
2022/11/02 08:35:27;;;;;;;;;;;;;;;;;;5113362;28;20048;-76
2022/11/02 08:37:56;;;;;;;13.65;2.90;;;;;;;;;;5112655;28;19919;-76
2022/11/02 08:40:22;;;;;;;18.00;2.65;;;;;;;;;;5111521;28;20534;-75
2022/11/02 08:42:48;;;;;;;15.43;2.58;;;;;;;;;;5111842;28;20051;-76
2022/11/02 08:45:16;;;;;;;18.98;2.53;;;;;;;;;;5077491;28;20044;-76
2022/11/02 08:47:42;;;;;;;10.43;2.17;;;;;;;;;;5111926;28;20044;-75
2022/11/02 08:50:09;;;;;;;13.82;2.30;;;;;;;;;;5112496;28;20055;-75
2022/11/02 08:52:36;;;;;;;13.93;2.40;;;;;;;;;;5111622;28;20039;-76
2022/11/02 08:55:02;;;;;;;12.93;2.38;;;;;;;;;;5114922;28;20079;-75
2022/11/02 08:57:28;;;;;;;16.30;2.33;;;;;;;;;;5116586;28;20508;-75
2022/11/02 08:59:54;;;;;;;16.00;2.33;;;;;;;;;;5115664;28;20132;-75
2022/11/02 09:02:20;;;;;;;13.75;1.80;;;;;;;;;;5105243;28;20150;-76
2022/11/02 09:04:46;;;;;;;13.27;2.33;;;;;;;;;;5115993;28;20171;-75
2022/11/02 09:07:12;;;;;;;13.75;2.75;;;;;;;;;;5097351;28;20043;-75
2022/11/02 09:09:38;;;;;;;11.18;2.08;;;;;;;;;;5115555;28;20043;-75
2022/11/02 09:12:05;;;;;;;11.93;1.88;;;;;;;;;;5115682;28;20036;-76
2022/11/02 09:14:31;;;;;;;13.57;1.92;;;;;;;;;;5116358;28;20083;-76
2022/11/02 09:16:57;;;;;;;9.00;1.80;;;;;;;;;;5116438;28;20132;-75
2022/11/02 09:19:23;;;;;;;11.07;1.80;;;;;;;;;;5116448;28;20047;-76
2022/11/02 09:21:50;;;;;;;7.45;1.63;;;;;;;;;;5113446;28;20043;-75
2022/11/02 09:24:16;;;;;;;11.48;2.03;;;;;;;;;;5114151;28;20540;-76
2022/11/02 09:26:42;;;;;;;11.82;1.77;;;;;;;;;;5116212;28;20396;-75
2022/11/02 09:29:08;;;;;;;13.20;1.85;;;;;;;;;;5116107;28;20047;-76
2022/11/02 09:31:34;;;;;;;13.85;1.83;;;;;;;;;;5115673;28;20044;-76
2022/11/02 09:34:00;;;;;;;7.72;1.63;;;;;;;;;;5097007;28;20089;-75
2022/11/02 09:36:26;;;;;;;12.95;1.88;;;;;;;;;;5115991;28;20047;-75
2022/11/02 09:38:52;;;;;;;14.40;2.03;;;;;;;;;;5113661;28;20039;-75
2022/11/02 09:41:27;;;;;;;11.25;1.67;;;;;;;;;;5113321;28;20051;-75
2022/11/02 09:44:06;;;;;;;10.10;1.92;;;;;;;;;;5096063;27;20043;-75
2022/11/02 09:46:33;;;;;;;14.25;1.88;;;;;;;;;;5102062;28;20048;-72
2022/11/02 09:49:03;;;;;;;11.50;2.22;;;;;;;;;;5095801;28;20240;-74
2022/11/02 09:51:47;;;;;;;15.88;2.00;;;;;;;;;;5114529;28;20489;-76
2022/11/02 09:54:19;;;;;;;12.18;1.73;;;;;;;;;;5113453;28;20051;-76
2022/11/02 09:56:46;;;;;;;9.52;1.95;;;;;;;;;;5111251;27;20035;-76
2022/11/02 09:59:30;;;;;;;9.82;1.88;;;;;;;;;;5114765;28;20039;-76
2022/11/02 10:02:14;;;;;;;13.52;2.47;;;;;;;;;;5095559;28;20067;-76
2022/11/02 10:04:40;;;;;;;13.43;2.08;;;;;;;;;;5094190;28;20520;-76
2022/11/02 10:07:09;;;;;;;9.82;2.15;;;;;;;;;;5096685;28;20035;-76
2022/11/02 10:09:35;;;;;;;10.95;2.05;;;;;;;;;;5094943;28;20105;-76
2022/11/02 10:12:15;;;;;;;11.45;1.70;;;;;;;;;;5107665;28;20504;-76
2022/11/02 10:14:59;;;;;;;14.15;1.67;;;;;;;;;;5113327;28;20051;-76
2022/11/02 10:17:26;;;;;;;9.65;1.70;;;;;;;;;;5113819;28;20558;-76
2022/11/02 10:19:55;;;;;;;10.77;1.58;;;;;;;;;;5115280;28;20044;-76
2022/11/02 10:22:21;;;;;;;10.20;1.95;;;;;;;;;;5113779;28;20039;-76
2022/11/02 10:24:48;;;;;;;11.90;1.88;;;;;;;;;;5113714;28;20067;-76
2022/11/02 10:27:22;;;;;;;11.25;1.83;;;;;;;;;;5114106;28;20052;-76
2022/11/02 10:29:54;;;;;;;9.07;2.03;;;;;;;;;;5094730;28;20440;-76
2022/11/02 10:32:21;;;;;;;13.38;1.85;;;;;;;;;;5097501;28;20511;-76
2022/11/02 10:34:47;;;;;;;11.35;1.55;;;;;;;;;;5112050;28;20443;-76
2022/11/02 10:37:32;;;;;;;12.18;1.83;;;;;;;;;;5094557;28;20393;-77
2022/11/02 10:39:58;;;;;;;13.93;2.00;;;;;;;;;;5101193;28;20165;-76
2022/11/02 10:42:44;;;;;;;12.50;2.17;;;;;;;;;;5113299;28;20044;-77
2022/11/02 10:45:29;;;;;;;11.30;2.17;;;;;;;;;;5107588;28;20043;-77
2022/11/02 10:48:14;;;;;;;10.60;1.58;;;;;;;;;;5110825;28;20039;-77
2022/11/02 10:50:46;;;;;;;13.60;1.88;;;;;;;;;;5109762;28;20039;-77
2022/11/02 10:53:14;;;;;;;8.95;1.65;;;;;;;;;;5085244;28;20431;-76
2022/11/02 10:55:45;;;;;;;15.68;1.83;;;;;;;;;;5111373;27;20630;-77
2022/11/02 10:58:11;;;;;;;;;;;;;;;;;;5114371;28;20083;-76
2022/11/02 11:00:37;;;;;;;10.40;1.70;;;;;;;;;;5113930;28;19926;-76
2022/11/02 11:03:06;;;;;;;15.95;1.90;;;;;;;;;;5105845;28;20052;-76
2022/11/02 11:05:34;;;;;;;11.02;1.90;;;;;;;;;;5114312;28;20059;-76
2022/11/02 11:08:01;;;;;;;11.23;1.73;;;;;;;;;;5113605;28;20066;-76
2022/11/02 11:10:27;;;;;;;13.40;2.20;;;;;;;;;;5113472;28;20089;-76
2022/11/02 11:12:54;;;;;;;11.93;2.10;;;;;;;;;;5106066;28;20382;-77
2022/11/02 11:15:26;;;;;;;12.30;1.77;;;;;;;;;;5091755;28;20056;-77
2022/11/02 11:17:52;;;;;;;12.40;2.67;;;;;;;;;;5110543;28;20397;-76
2022/11/02 11:20:31;;;;;;;15.07;2.55;;;;;;;;;;5108406;28;20047;-77
2022/11/02 11:23:30;;;;;;;9.43;1.52;;;;;;;;;;5107444;28;20054;-77
2022/11/02 11:26:00;;;;;;;12.25;2.10;;;;;;;;;;5076687;28;20047;-77
2022/11/02 11:28:36;;;;;;;10.23;1.70;;;;;;;;;;5111184;28;20114;-76
2022/11/02 11:31:10;;;;;;;12.38;2.50;;;;;;;;;;5109752;28;20038;-77
2022/11/02 11:34:02;;;;;;;14.48;2.20;;;;;;;;;;5102562;28;20047;-78
2022/11/02 11:36:33;;;;;;;15.13;2.28;;;;;;;;;;5099833;28;20187;-77
2022/11/02 11:39:04;;;;;;;10.65;1.80;;;;;;;;;;5109839;28;20097;-76
2022/11/02 11:41:31;;;;;;;13.40;2.28;;;;;;;;;;5093482;28;20720;-76
2022/11/02 11:43:57;;;;;;;10.07;1.80;;;;;;;;;;5110840;28;20463;-76
2022/11/02 11:46:37;;;;;;;11.82;1.70;;;;;;;;;;5111019;28;20036;-75
2022/11/02 11:49:03;;;;;;;10.43;2.03;;;;;;;;;;5111548;28;20052;-76
2022/11/02 11:51:32;;;;;;;13.18;1.77;;;;;;;;;;5105256;28;20067;-76
2022/11/02 11:54:19;;;;;;;10.98;2.05;;;;;;;;;;5109741;28;20035;-76
2022/11/02 11:56:46;;;;;;;9.35;1.92;;;;;;;;;;5101701;28;20127;-76
2022/11/02 11:59:26;;;;;;;13.07;2.05;;;;;;;;;;5091488;28;20040;-75
2022/11/02 12:01:55;;;;;;;12.95;1.83;;;;;;;;;;5112102;28;20036;-76
2022/11/02 12:04:28;;;;;;;10.82;1.88;;;;;;;;;;5109763;28;20031;-76
2022/11/02 12:06:54;;;;;;;13.30;2.10;;;;;;;;;;5112272;28;20409;-76
2022/11/02 12:09:42;;;;;;;13.15;2.10;;;;;;;;;;5109291;28;20075;-76
2022/11/02 12:12:20;;;;;;;8.02;1.38;;;;;;;;;;5091085;28;20047;-76
2022/11/02 12:14:49;;;;;;;14.82;2.35;;;;;;;;;;5105687;28;20070;-76
2022/11/02 12:17:15;;;;;;;10.75;1.67;;;;;;;;;;5111334;28;20050;-76
2022/11/02 12:19:56;;;;;;;12.38;1.95;;;;;;;;;;5111355;28;20040;-77
2022/11/02 12:22:22;;;;;;;16.67;2.28;;;;;;;;;;5112210;28;20035;-76
2022/11/02 12:25:07;;;;;;;7.25;1.45;;;;;;;;;;5110909;28;20370;-75
2022/11/02 12:27:48;;;;;;;9.93;1.67;;;;;;;;;;5097019;28;20031;-76
2022/11/02 12:30:17;;;;;;;8.93;1.40;;;;;;;;;;5069683;28;20100;-76
2022/11/02 12:33:02;;;;;;;9.23;1.80;;;;;;;;;;5105739;28;20040;-76
2022/11/02 12:35:30;;;;;;;9.55;1.60;;;;;;;;;;5105100;28;20450;-76
2022/11/02 12:37:59;;;;;;;9.48;1.42;;;;;;;;;;5111632;28;20052;-76
2022/11/02 12:40:31;;;;;;;12.20;1.77;;;;;;;;;;5111162;28;20185;-76
2022/11/02 12:43:03;;;;;;;11.15;1.48;;;;;;;;;;5111148;28;20031;-76
2022/11/02 12:45:42;;;;;;;9.18;1.58;;;;;;;;;;5106417;28;20455;-76
2022/11/02 12:48:09;;;;;;;11.10;2.03;;;;;;;;;;5101263;28;20052;-76
2022/11/02 12:50:54;;;;;;;11.07;1.67;;;;;;;;;;5107957;28;20040;-76
2022/11/02 12:53:39;;;;;;;9.88;1.48;;;;;;;;;;5106279;28;20048;-76
2022/11/02 12:56:07;;;;;;;10.98;1.95;;;;;;;;;;5110004;28;20048;-76
2022/11/02 12:58:35;;;;;;;12.63;1.98;;;;;;;;;;5106955;28;20084;-76
2022/11/02 13:01:14;;;;;;;12.30;1.90;;;;;;;;;;5091943;28;20378;-76
2022/11/02 13:03:48;;;;;;;10.57;1.50;;;;;;;;;;5104261;28;20401;-76
2022/11/02 13:06:16;;;;;;;8.85;1.35;;;;;;;;;;5102533;28;20471;-76
2022/11/02 13:08:46;;;;;;;13.50;2.03;;;;;;;;;;5108903;28;20046;-76
2022/11/02 13:11:14;;;;;;;9.93;1.65;;;;;;;;;;5111715;28;20036;-76
2022/11/02 13:13:48;;;;;;;14.57;2.00;;;;;;;;;;5105613;28;20040;-76
2022/11/02 13:16:15;;;;;;;10.00;1.50;;;;;;;;;;5091585;28;20128;-77
2022/11/02 13:18:49;;;;;;;9.60;1.45;;;;;;;;;;5104026;28;20076;-77
2022/11/02 13:21:16;;;;;;;8.15;1.35;;;;;;;;;;5098033;28;20047;-77
2022/11/02 13:23:44;;;;;;;17.80;5.38;;;;;;;;;;5098782;28;20040;-76
2022/11/02 13:26:26;;;;;;;12.52;2.40;;;;;;;;;;5093183;28;20180;-76
2022/11/02 13:28:54;;;;;;;14.57;2.55;;;;;;;;;;5107018;28;20040;-76
2022/11/02 13:31:32;;;;;;;11.95;2.97;;;;;;;;;;5108740;28;20039;-77
2022/11/02 13:33:59;;;;;;;10.85;2.30;;;;;;;;;;5112166;28;20067;-76
2022/11/02 13:36:26;;;;;;;8.80;1.77;;;;;;;;;;5093006;28;20525;-77
2022/11/02 13:38:55;;;;;;;10.43;1.92;;;;;;;;;;5091523;28;20048;-76
2022/11/02 13:41:46;;;;;;;10.82;1.70;;;;;;;;;;5106317;28;20039;-76
2022/11/02 13:44:21;;;;;;;11.20;1.83;;;;;;;;;;5115393;28;20120;-76
2022/11/02 13:46:56;;;;;;;10.55;2.00;;;;;;;;;;5114709;28;20046;-76
2022/11/02 13:49:25;;;;;;;12.10;1.98;;;;;;;;;;5115999;28;20087;-76
2022/11/02 13:51:53;;;;;;;10.30;1.88;;;;;;;;;;5114834;28;20035;-76
2022/11/02 13:54:23;;;;;;;12.07;1.92;;;;;;;;;;5113423;28;20047;-76
2022/11/02 13:56:54;;;;;;;14.40;2.00;;;;;;;;;;5113782;28;20044;-76
2022/11/02 13:59:22;;;;;;;9.32;1.77;;;;;;;;;;5114529;27;20063;-76
2022/11/02 14:01:52;;;;;;;10.13;2.08;;;;;;;;;;5110729;28;20043;-75
2022/11/02 14:04:19;;;;;;;13.70;1.63;;;;;;;;;;5112965;28;20047;-75
2022/11/02 14:06:45;;;;;;;14.18;2.10;;;;;;;;;;5114022;28;20032;-77
2022/11/02 14:09:20;;;;;;;17.15;1.88;;;;;;;;;;5115243;28;20048;-77
2022/11/02 14:11:47;;;;;;;12.32;2.25;;;;;;;;;;5113181;28;20043;-76
2022/11/02 14:14:18;;;;;;;10.35;1.83;;;;;;;;;;5115215;28;20487;-77
2022/11/02 14:16:46;;;;;;;9.98;1.70;;;;;;;;;;5115313;28;20039;-76
2022/11/02 14:19:18;;;;;;;13.48;2.05;;;;;;;;;;5115307;28;20052;-76
2022/11/02 14:21:44;;;;;;;13.93;2.30;;;;;;;;;;5102006;28;20081;-76
2022/11/02 14:24:29;;;;;;;9.43;2.05;;;;;;;;;;5115001;28;20031;-77
2022/11/02 14:26:56;;;;;;;12.73;2.17;;;;;;;;;;5114845;28;20380;-77
2022/11/02 14:29:38;;;;;;;13.38;2.45;;;;;;;;;;5114859;28;20054;-77
2022/11/02 14:32:07;;;;;;;10.50;2.13;;;;;;;;;;5111228;27;20056;-77
2022/11/02 14:34:45;;;;;;;12.48;1.98;;;;;;;;;;5101361;28;20040;-77
2022/11/02 14:37:17;;;;;;;10.82;1.80;;;;;;;;;;5099347;28;20040;-76
2022/11/02 14:39:49;;;;;;;8.38;1.70;;;;;;;;;;5116446;28;20066;-76
2022/11/02 14:42:30;;;;;;;12.23;2.33;;;;;;;;;;5112438;28;20043;-76
2022/11/02 14:45:14;;;;;;;13.18;2.80;;;;;;;;;;5098686;28;20043;-77
2022/11/02 14:47:40;;;;;;;14.57;2.70;;;;;;;;;;5112450;28;20035;-76
2022/11/02 14:50:12;;;;;;;13.40;2.03;;;;;;;;;;5114269;28;20196;-76
2022/11/02 14:52:39;;;;;;;12.70;2.45;;;;;;;;;;5112837;28;20119;-76
2022/11/02 14:55:24;;;;;;;9.77;1.88;;;;;;;;;;5101041;28;20052;-76
2022/11/02 14:57:59;;;;;;;13.40;2.15;;;;;;;;;;5110276;28;20040;-76
2022/11/02 15:00:31;;;;;;;12.13;2.05;;;;;;;;;;5113654;28;20087;-76
2022/11/02 15:02:58;;;;;;;12.75;2.40;;;;;;;;;;5112335;28;20056;-77